Time;durP1;ratioP1;P1;durP2;ratioP2;P2;SDS_P1;SDS_P2;PMS_P1;PMS_P2;Temp;Humidity;BMP_temperature;BMP_pressure;BME280_temperature;BME280_humidity;BME280_pressure;Samples;Min_cycle;Max_cycle;Signal;HPM_P1;HPM_P2
2024/01/01 00:00:12;;;;;;;13.95;6.40;;;;;;;7.72;100.00;99810.53;5110270;28;20028;-36
2024/01/01 00:02:37;;;;;;;10.57;4.47;;;;;;;7.69;100.00;99810.19;5110314;28;20051;-36
2024/01/01 00:05:03;;;;;;;5.13;2.42;;;;;;;7.56;100.00;99799.66;5110438;28;20027;-36
2024/01/01 00:07:28;;;;;;;10.05;4.00;;;;;;;7.60;100.00;99806.22;5102130;28;20146;-36
2024/01/01 00:09:54;;;;;;;14.93;7.40;;;;;;;7.53;100.00;99802.84;5096799;28;20456;-36
2024/01/01 00:12:19;;;;;;;12.93;8.33;;;;;;;7.49;100.00;99807.88;5097092;28;20458;-36
2024/01/01 00:14:44;;;;;;;8.80;2.80;;;;;;;7.49;100.00;99816.75;5096597;28;20054;-36
2024/01/01 00:17:10;;;;;;;7.47;2.07;;;;;;;7.47;100.00;99807.31;5097008;28;20460;-36
2024/01/01 00:19:35;;;;;;;3.70;1.43;;;;;;;7.46;100.00;99835.22;5097149;28;20020;-36
2024/01/01 00:22:02;;;;;;;6.63;1.90;;;;;;;7.34;100.00;99813.72;5096910;28;20251;-36
2024/01/01 00:24:28;;;;;;;5.13;1.85;;;;;;;7.20;100.00;99791.63;5096180;28;20107;-36
2024/01/01 00:26:53;;;;;;;3.70;1.40;;;;;;;7.32;100.00;99821.22;5096237;28;20063;-36
2024/01/01 00:29:19;;;;;;;3.42;1.30;;;;;;;7.27;100.00;99821.13;5096409;28;20020;-36
2024/01/01 00:31:44;;;;;;;5.60;1.33;;;;;;;7.15;100.00;99804.16;5096688;28;20131;-36
2024/01/01 00:34:10;;;;;;;5.65;1.40;;;;;;;7.10;100.00;99818.28;5096022;28;20031;-36
2024/01/01 00:36:35;;;;;;;3.43;1.80;;;;;;;7.01;100.00;99816.19;5095936;28;20097;-36
2024/01/01 00:39:01;;;;;;;4.15;1.50;;;;;;;6.85;100.00;99797.00;5095589;28;20274;-36
2024/01/01 00:41:26;;;;;;;5.53;1.73;;;;;;;6.81;100.00;99801.19;5095936;28;20074;-36
2024/01/01 00:43:52;;;;;;;4.37;1.70;;;;;;;6.86;100.00;99819.31;5095172;28;20036;-36
2024/01/01 00:46:17;;;;;;;3.60;1.40;;;;;;;6.79;100.00;99819.44;5095982;28;20036;-36
2024/01/01 00:48:43;;;;;;;5.15;1.70;;;;;;;6.56;100.00;99789.84;5096189;28;20079;-36
2024/01/01 00:51:08;;;;;;;8.15;2.00;;;;;;;6.65;100.00;99823.38;5095895;28;20161;-36
2024/01/01 00:53:34;;;;;;;3.78;1.60;;;;;;;6.52;100.00;99812.81;5094937;28;20510;-35
2024/01/01 00:55:59;;;;;;;4.73;1.70;;;;;;;6.51;100.00;99805.81;5095489;28;20048;-36
2024/01/01 00:58:24;;;;;;;3.07;1.10;;;;;;;6.56;100.00;99808.63;5094960;28;20111;-36
2024/01/01 01:00:50;;;;;;;3.83;1.40;;;;;;;6.44;100.00;99803.22;5095016;28;20476;-36
2024/01/01 01:03:15;;;;;;;5.57;2.27;;;;;;;6.47;100.00;99821.56;5094847;28;20027;-36
2024/01/01 01:05:40;;;;;;;4.63;2.00;;;;;;;6.43;100.00;99815.81;5095220;28;20039;-36
2024/01/01 01:08:07;;;;;;;3.03;1.70;;;;;;;6.35;100.00;99818.03;5095883;28;20031;-36
2024/01/01 01:10:32;;;;;;;4.35;2.10;;;;;;;6.19;100.00;99808.72;5095276;28;20104;-36
2024/01/01 01:12:57;;;;;;;3.70;1.57;;;;;;;6.28;100.00;99830.72;5095770;28;20440;-36
2024/01/01 01:15:25;;;;;;;3.33;1.70;;;;;;;6.23;100.00;99833.25;5095108;28;20028;-36
2024/01/01 01:17:51;;;;;;;3.67;1.77;;;;;;;6.06;100.00;99803.56;5094990;28;20024;-36
2024/01/01 01:20:16;;;;;;;6.70;1.92;;;;;;;6.18;100.00;99828.56;5094306;28;20035;-36
2024/01/01 01:22:42;;;;;;;4.35;2.53;;;;;;;6.18;100.00;99839.31;5094749;28;20039;-36
2024/01/01 01:25:08;;;;;;;5.57;2.03;;;;;;;6.18;100.00;99842.00;5094694;28;20024;-36
2024/01/01 01:27:33;;;;;;;6.35;2.38;;;;;;;6.17;100.00;99854.59;5094430;28;20028;-36
2024/01/01 01:29:59;;;;;;;4.57;1.70;;;;;;;6.20;100.00;99864.09;5095414;28;20024;-36
2024/01/01 01:32:24;;;;;;;4.20;1.97;;;;;;;6.14;100.00;99835.44;5094884;28;20078;-36
2024/01/01 01:34:50;;;;;;;7.47;1.90;;;;;;;6.24;100.00;99851.00;5094742;28;20031;-36
2024/01/01 01:37:15;;;;;;;5.28;1.80;;;;;;;6.25;100.00;99845.44;5095707;28;20410;-36
2024/01/01 01:39:41;;;;;;;5.93;2.10;;;;;;;6.21;100.00;99833.50;5094794;28;20030;-36
2024/01/01 01:42:08;;;;;;;5.63;1.93;;;;;;;6.26;100.00;99840.88;5095275;28;20024;-36
2024/01/01 01:44:34;;;;;;;4.63;1.45;;;;;;;6.26;100.00;99851.63;5095194;28;20028;-36
2024/01/01 01:47:01;;;;;;;4.55;1.63;;;;;;;6.23;100.00;99839.44;5094679;28;20031;-36
2024/01/01 01:49:26;;;;;;;6.68;2.35;;;;;;;6.24;100.00;99842.94;5094587;28;20459;-36
2024/01/01 01:51:54;;;;;;;5.57;1.80;;;;;;;6.22;100.00;99840.50;5095402;28;20059;-36
2024/01/01 01:54:22;;;;;;;6.75;2.22;;;;;;;6.21;100.00;99835.38;5094797;28;20028;-36
2024/01/01 01:56:48;;;;;;;5.85;1.88;;;;;;;6.23;100.00;99842.13;5094875;28;20063;-36
2024/01/01 01:59:14;;;;;;;5.13;1.77;;;;;;;6.25;100.00;99844.63;5094662;28;20028;-35
2024/01/01 02:01:40;;;;;;;9.10;3.80;;;;;;;6.23;100.00;99846.69;5094076;28;20047;-36
2024/01/01 02:04:05;;;;;;;10.10;2.80;;;;;;;6.24;100.00;99864.44;5094630;28;20020;-36
2024/01/01 02:06:31;;;;;;;6.85;2.40;;;;;;;6.26;100.00;99867.72;5094328;28;20035;-36
2024/01/01 02:08:57;;;;;;;7.15;3.83;;;;;;;6.24;100.00;99853.69;5094216;28;20028;-36
2024/01/01 02:11:22;;;;;;;5.72;2.00;;;;;;;6.27;100.00;99854.06;5094212;28;20106;-36
2024/01/01 02:13:48;;;;;;;6.90;2.60;;;;;;;6.28;100.00;99847.66;5093813;28;20107;-36
2024/01/01 02:16:13;;;;;;;7.13;1.90;;;;;;;6.17;100.00;99829.63;5094881;28;20403;-36
2024/01/01 02:18:40;;;;;;;6.50;2.00;;;;;;;6.33;100.00;99853.16;5093776;28;20055;-36
2024/01/01 02:21:05;;;;;;;7.22;2.50;;;;;;;6.34;100.00;99857.47;5094562;28;20028;-36
2024/01/01 02:23:31;;;;;;;9.48;3.17;;;;;;;6.34;100.00;99852.09;5093702;28;20054;-36
2024/01/01 02:25:56;;;;;;;10.63;2.13;;;;;;;6.21;100.00;99833.50;5094510;28;20035;-36
2024/01/01 02:28:22;;;;;;;7.13;2.30;;;;;;;6.36;100.00;99852.72;5093956;28;20081;-36
2024/01/01 02:30:47;;;;;;;7.10;2.00;;;;;;;6.35;100.00;99851.06;5094533;28;20027;-36
2024/01/01 02:33:14;;;;;;;7.27;2.20;;;;;;;6.40;100.00;99853.91;5093872;28;20020;-36
2024/01/01 02:35:39;;;;;;;7.43;2.30;;;;;;;6.41;100.00;99854.72;5094086;28;20020;-36
2024/01/01 02:38:07;;;;;;;7.72;2.40;;;;;;;6.44;100.00;99864.97;5093781;28;20028;-36
2024/01/01 02:40:33;;;;;;;10.43;2.25;;;;;;;6.47;100.00;99879.84;5094319;28;20024;-36
2024/01/01 02:43:00;;;;;;;7.38;2.53;;;;;;;6.40;100.00;99853.91;5094540;28;20027;-36
2024/01/01 02:45:27;;;;;;;5.05;1.77;;;;;;;6.50;100.00;99882.06;5093892;28;20028;-36
2024/01/01 02:47:53;;;;;;;9.43;2.38;;;;;;;6.51;100.00;99876.47;5093987;28;20049;-35
2024/01/01 02:50:20;;;;;;;;;;;;;;;6.53;100.00;99873.53;5093991;28;20027;-36
2024/01/01 02:52:46;;;;;;;8.65;2.30;;;;;;;6.32;100.00;99850.69;5094126;28;19912;-36
2024/01/01 02:55:11;;;;;;;7.25;2.08;;;;;;;6.41;100.00;99870.81;5093678;28;20161;-36
2024/01/01 02:57:36;;;;;;;9.77;2.47;;;;;;;6.44;100.00;99898.06;5093341;28;20028;-36
2024/01/01 03:00:03;;;;;;;7.93;2.20;;;;;;;6.36;100.00;99871.50;5093574;28;20028;-36
2024/01/01 03:02:28;;;;;;;10.70;2.50;;;;;;;6.40;100.00;99886.13;5075956;28;20024;-36
2024/01/01 03:04:54;;;;;;;7.18;2.10;;;;;;;6.39;100.00;99864.84;5093735;28;20488;-36
2024/01/01 03:07:19;;;;;;;8.60;2.23;;;;;;;6.41;100.00;99877.00;5093774;28;20354;-35
2024/01/01 03:09:44;;;;;;;8.90;1.98;;;;;;;6.41;100.00;99876.19;5093418;28;20040;-36
2024/01/01 03:12:10;;;;;;;9.17;2.63;;;;;;;6.41;100.00;99871.63;5093424;28;20035;-36
2024/01/01 03:14:35;;;;;;;6.33;2.00;;;;;;;6.41;100.00;99879.69;5093033;28;20028;-36
2024/01/01 03:17:00;;;;;;;6.33;1.80;;;;;;;6.42;100.00;99878.63;5093617;28;20035;-36
2024/01/01 03:19:26;;;;;;;8.63;2.03;;;;;;;6.40;100.00;99888.00;5093375;28;20162;-36
2024/01/01 03:21:51;;;;;;;8.30;2.53;;;;;;;6.41;100.00;99877.00;5094138;28;20078;-36
2024/01/01 03:24:16;;;;;;;7.73;2.30;;;;;;;6.45;100.00;99883.56;5093151;28;20032;-36
2024/01/01 03:26:42;;;;;;;10.17;2.50;;;;;;;6.43;100.00;99874.09;5093233;28;20035;-36
2024/01/01 03:29:07;;;;;;;13.53;2.73;;;;;;;6.41;100.00;99871.63;5093176;28;20028;-36
2024/01/01 03:31:33;;;;;;;10.75;3.40;;;;;;;6.48;100.00;99893.03;5093984;28;20050;-36
2024/01/01 03:33:58;;;;;;;6.25;2.13;;;;;;;6.51;100.00;99892.59;5093201;28;20043;-36
2024/01/01 03:36:24;;;;;;;11.13;2.67;;;;;;;6.50;100.00;99890.94;5093626;28;20040;-35
2024/01/01 03:38:49;;;;;;;14.20;3.40;;;;;;;6.50;100.00;99906.25;5093162;28;20030;-36
2024/01/01 03:41:14;;;;;;;8.77;2.13;;;;;;;6.48;100.00;99886.84;5093183;28;20032;-35
2024/01/01 03:43:40;;;;;;;10.23;2.73;;;;;;;6.42;100.00;99883.19;5096624;28;20028;-36
2024/01/01 03:46:05;;;;;;;7.47;2.03;;;;;;;6.40;100.00;99888.81;5097614;28;20376;-36
2024/01/01 03:48:30;;;;;;;8.93;2.87;;;;;;;6.43;100.00;99892.88;5097730;28;20055;-36
2024/01/01 03:50:56;;;;;;;11.70;2.10;;;;;;;6.47;100.00;99890.56;5097210;28;20040;-36
2024/01/01 03:53:21;;;;;;;9.90;2.53;;;;;;;6.49;100.00;99883.09;5096860;28;20028;-36
2024/01/01 03:55:46;;;;;;;9.43;2.07;;;;;;;6.46;100.00;99879.00;5097592;28;20048;-36
2024/01/01 03:58:12;;;;;;;11.43;2.87;;;;;;;6.34;100.00;99878.13;5096483;28;20023;-36
2024/01/01 04:00:37;;;;;;;8.63;2.20;;;;;;;6.37;100.00;99883.88;5096687;28;20047;-36
2024/01/01 04:03:03;;;;;;;10.53;3.00;;;;;;;6.40;100.00;99885.31;5096407;28;20547;-36
2024/01/01 04:05:29;;;;;;;14.30;3.03;;;;;;;6.38;100.00;99888.19;5097367;28;20335;-36
2024/01/01 04:07:54;;;;;;;8.48;2.10;;;;;;;6.36;100.00;99884.13;5097159;28;20036;-36
2024/01/01 04:10:20;;;;;;;5.30;2.17;;;;;;;6.35;100.00;99888.66;5096810;28;20119;-36
2024/01/01 04:12:46;;;;;;;8.73;2.35;;;;;;;6.35;100.00;99885.97;5096477;28;20024;-36
2024/01/01 04:15:11;;;;;;;10.93;2.83;;;;;;;6.34;100.00;99891.56;5097155;28;20070;-36
2024/01/01 04:17:37;;;;;;;10.52;2.22;;;;;;;6.25;100.00;99876.84;5096942;28;20031;-36
2024/01/01 04:20:02;;;;;;;11.33;2.20;;;;;;;6.33;100.00;99904.16;5096057;28;20046;-36
2024/01/01 04:22:28;;;;;;;7.63;2.38;;;;;;;6.32;100.00;99885.59;5096851;28;20047;-36
2024/01/01 04:24:53;;;;;;;10.23;2.43;;;;;;;6.32;100.00;99893.66;5096473;28;20545;-36
2024/01/01 04:27:19;;;;;;;6.73;1.80;;;;;;;6.32;100.00;99899.84;5096251;28;20787;-36
2024/01/01 04:29:44;;;;;;;7.63;2.30;;;;;;;6.30;100.00;99903.81;5096278;28;20028;-36
2024/01/01 04:32:09;;;;;;;6.80;1.70;;;;;;;6.23;100.00;99874.34;5096072;28;20061;-36
2024/01/01 04:34:35;;;;;;;7.93;2.13;;;;;;;6.32;100.00;99893.66;5096342;28;20367;-35
2024/01/01 04:37:01;;;;;;;7.93;2.08;;;;;;;6.23;100.00;99885.09;5096521;28;20077;-36
2024/01/01 04:39:27;;;;;;;6.88;1.90;;;;;;;6.31;100.00;99902.78;5096241;28;20069;-36
2024/01/01 04:41:52;;;;;;;7.20;1.52;;;;;;;6.30;100.00;99901.94;5095644;28;20526;-35
2024/01/01 04:44:17;;;;;;;5.65;1.52;;;;;;;6.32;100.00;99897.16;5096188;28;20028;-36
2024/01/01 04:46:43;;;;;;;7.13;1.80;;;;;;;6.33;100.00;99906.84;5078548;28;20058;-36
2024/01/01 04:49:08;;;;;;;9.10;2.00;;;;;;;6.33;100.00;99922.97;5095764;28;20102;-36
2024/01/01 04:51:33;;;;;;;8.07;2.10;;;;;;;6.34;100.00;99923.78;5096557;28;20103;-36
2024/01/01 04:53:59;;;;;;;9.30;2.20;;;;;;;6.32;100.00;99915.97;5096139;28;20028;-36
2024/01/01 04:56:24;;;;;;;8.20;1.90;;;;;;;6.32;100.00;99929.38;5095875;28;20060;-36
2024/01/01 04:58:52;;;;;;;7.53;1.73;;;;;;;6.34;100.00;99940.72;5095601;28;20032;-35
2024/01/01 05:01:17;;;;;;;6.20;2.05;;;;;;;6.31;100.00;99929.63;5095540;28;20047;-36
2024/01/01 05:03:43;;;;;;;8.88;2.78;;;;;;;6.29;100.00;99911.03;5095229;28;20062;-36
2024/01/01 05:06:08;;;;;;;6.43;1.97;;;;;;;6.35;100.00;99926.25;5095811;28;20065;-36
2024/01/01 05:08:33;;;;;;;9.57;2.83;;;;;;;6.26;100.00;99926.78;5095644;28;20024;-36
2024/01/01 05:11:03;;;;;;;5.83;1.93;;;;;;;6.30;100.00;99934.16;5095320;28;20020;-36
2024/01/01 05:13:28;;;;;;;7.78;1.88;;;;;;;6.28;100.00;99941.63;5095243;28;20028;-36
2024/01/01 05:15:53;;;;;;;12.67;2.50;;;;;;;6.30;100.00;99944.91;5095265;28;20051;-36
2024/01/01 05:18:19;;;;;;;8.87;2.20;;;;;;;6.20;100.00;99928.50;5094963;28;20388;-36
2024/01/01 05:20:44;;;;;;;9.30;2.10;;;;;;;6.27;100.00;99937.28;5095234;28;20530;-36
2024/01/01 05:23:09;;;;;;;9.23;2.67;;;;;;;6.30;100.00;99947.59;5095153;28;20028;-36
2024/01/01 05:25:35;;;;;;;9.03;2.13;;;;;;;6.32;100.00;99953.56;5095680;28;20340;-36
2024/01/01 05:28:00;;;;;;;6.65;1.90;;;;;;;6.33;100.00;99957.06;5095014;28;20388;-36
2024/01/01 05:30:29;;;;;;;5.97;1.73;;;;;;;6.23;100.00;99949.53;5095557;28;20024;-36
2024/01/01 05:32:54;;;;;;;7.25;1.90;;;;;;;6.23;100.00;99943.34;5094942;28;20028;-36
2024/01/01 05:35:20;;;;;;;10.43;2.00;;;;;;;6.27;100.00;99961.47;5095050;28;20035;-35
2024/01/01 05:37:45;;;;;;;10.00;2.13;;;;;;;6.28;100.00;99973.00;5094853;28;20051;-35
2024/01/01 05:40:11;;;;;;;7.37;2.17;;;;;;;6.28;100.00;99975.69;5094839;28;20417;-35
2024/01/01 05:42:36;;;;;;;10.27;2.63;;;;;;;6.26;100.00;99972.44;5095328;28;20464;-35
2024/01/01 05:45:03;;;;;;;8.10;2.33;;;;;;;6.28;100.00;99965.78;5076528;28;20107;-36
2024/01/01 05:47:28;;;;;;;7.10;1.98;;;;;;;6.29;100.00;99969.28;5094621;28;20103;-36
2024/01/01 05:49:53;;;;;;;8.70;2.40;;;;;;;6.29;100.00;99970.09;5094648;28;20038;-36
2024/01/01 05:52:21;;;;;;;6.37;2.30;;;;;;;6.28;100.00;99963.09;5094873;28;20273;-36
2024/01/01 05:54:47;;;;;;;7.25;1.98;;;;;;;6.29;100.00;99967.41;5095018;28;20028;-36
2024/01/01 05:57:13;;;;;;;8.50;2.40;;;;;;;6.29;100.00;99969.28;5094347;28;20492;-36
2024/01/01 05:59:38;;;;;;;16.67;3.80;;;;;;;6.29;100.00;99986.22;5094396;28;20020;-35
2024/01/01 06:02:03;;;;;;;7.97;2.00;;;;;;;6.24;100.00;99994.13;5094388;28;20123;-36
2024/01/01 06:04:29;;;;;;;6.47;2.03;;;;;;;6.31;100.00;99992.19;5093570;28;20040;-36
2024/01/01 06:06:54;;;;;;;7.80;1.73;;;;;;;6.16;100.00;99973.78;5094589;28;20028;-36
2024/01/01 06:09:20;;;;;;;7.47;1.70;;;;;;;6.26;100.00;100007.34;5094255;28;20035;-36
2024/01/01 06:11:46;;;;;;;;;;;;;;;6.23;100.00;100011.28;5095017;28;20036;-36
2024/01/01 06:14:11;;;;;;;8.03;1.63;;;;;;;6.15;100.00;100001.66;5094225;28;19912;-35
2024/01/01 06:16:36;;;;;;;11.37;2.53;;;;;;;6.11;100.00;100013.06;5094381;28;20277;-36
2024/01/01 06:19:02;;;;;;;8.73;2.53;;;;;;;6.09;100.00;100026.69;5094157;28;20382;-36
2024/01/01 06:21:27;;;;;;;7.63;1.90;;;;;;;6.07;100.00;100015.38;5094644;28;20024;-36
2024/01/01 06:23:53;;;;;;;11.10;1.70;;;;;;;6.02;100.00;100009.03;5093769;28;20020;-36
2024/01/01 06:26:18;;;;;;;8.67;2.00;;;;;;;6.05;100.00;100024.66;5094535;28;20511;-36
2024/01/01 06:28:43;;;;;;;8.67;2.30;;;;;;;6.06;100.00;100029.00;5093897;28;20649;-36
2024/01/01 06:31:09;;;;;;;6.63;1.60;;;;;;;6.03;100.00;100041.00;5094509;28;20026;-36
2024/01/01 06:33:34;;;;;;;5.90;1.52;;;;;;;6.04;100.00;100053.38;5094399;28;20024;-35
2024/01/01 06:35:59;;;;;;;5.70;2.13;;;;;;;5.98;100.00;100034.66;5093757;28;20081;-36
2024/01/01 06:38:25;;;;;;;5.90;2.13;;;;;;;6.00;100.00;100045.97;5093574;28;20028;-36
2024/01/01 06:40:50;;;;;;;6.17;1.60;;;;;;;6.07;100.00;100049.44;5093481;28;20058;-36
2024/01/01 06:43:16;;;;;;;6.57;2.40;;;;;;;6.03;100.00;100045.53;5094564;28;20066;-36
2024/01/01 06:45:41;;;;;;;6.68;2.03;;;;;;;6.00;100.00;100062.91;5093523;28;20495;-36
2024/01/01 06:48:11;;;;;;;12.73;2.40;;;;;;;6.01;100.00;100074.47;5093697;28;20044;-36
2024/01/01 06:50:36;;;;;;;8.25;1.88;;;;;;;6.01;100.00;100086.03;5093627;28;20024;-35
2024/01/01 06:53:01;;;;;;;7.23;1.70;;;;;;;5.90;100.00;100063.41;5094033;28;20032;-36
2024/01/01 06:55:29;;;;;;;8.13;2.37;;;;;;;6.01;100.00;100095.94;5093195;28;20137;-36
2024/01/01 06:57:54;;;;;;;12.07;2.53;;;;;;;5.98;100.00;100091.00;5094376;28;20128;-36
2024/01/01 07:00:20;;;;;;;7.63;1.77;;;;;;;5.85;100.00;100065.88;5093316;28;20428;-36
2024/01/01 07:02:45;;;;;;;10.23;2.40;;;;;;;5.96;100.00;100088.56;5094118;28;20047;-36
2024/01/01 07:05:11;;;;;;;7.60;2.03;;;;;;;5.94;100.00;100091.44;5093752;28;20028;-36
2024/01/01 07:07:36;;;;;;;5.67;1.70;;;;;;;5.93;100.00;100095.16;5094132;28;20388;-36
2024/01/01 07:10:02;;;;;;;7.83;1.73;;;;;;;5.93;100.00;100100.53;5093483;28;20294;-36
2024/01/01 07:12:27;;;;;;;7.63;1.92;;;;;;;5.92;100.00;100100.75;5094033;28;20020;-36
2024/01/01 07:14:54;;;;;;;12.15;2.60;;;;;;;5.92;100.00;100104.25;5093629;28;20024;-36
2024/01/01 07:17:20;;;;;;;7.45;2.08;;;;;;;5.88;100.00;100105.72;5095671;28;20372;-36
2024/01/01 07:19:45;;;;;;;;;;;;;;;5.89;100.00;100109.22;5097633;28;20040;-36
2024/01/01 07:22:11;;;;;;;9.52;2.60;;;;;;;5.82;100.00;100098.53;5098388;28;19915;-36
2024/01/01 07:24:37;;;;;;;9.98;2.65;;;;;;;5.82;100.00;100108.44;5097423;28;20032;-36
2024/01/01 07:27:02;;;;;;;7.57;2.42;;;;;;;5.81;100.00;100104.13;5097965;28;20116;-36
2024/01/01 07:29:30;;;;;;;7.22;1.95;;;;;;;5.82;100.00;100106.59;5097634;28;20032;-36
2024/01/01 07:31:55;;;;;;;8.93;2.15;;;;;;;5.86;100.00;100121.22;5097535;28;20031;-36
2024/01/01 07:34:21;;;;;;;9.43;2.27;;;;;;;5.87;100.00;100122.84;5097339;28;20020;-35
2024/01/01 07:36:47;;;;;;;6.07;1.60;;;;;;;5.83;100.00;100144.97;5096914;28;20702;-36
2024/01/01 07:39:12;;;;;;;8.85;2.05;;;;;;;5.81;100.00;100134.47;5096816;28;20032;-36
2024/01/01 07:41:38;;;;;;;7.70;2.13;;;;;;;5.80;100.00;100138.16;5097094;28;20055;-36
2024/01/01 07:44:04;;;;;;;6.63;1.85;;;;;;;5.74;100.00;100128.31;5096726;28;20028;-36
2024/01/01 07:46:29;;;;;;;5.05;1.65;;;;;;;5.77;100.00;100135.94;5096764;28;20039;-36
2024/01/01 07:48:55;;;;;;;8.00;2.20;;;;;;;5.80;100.00;100142.72;5096566;28;20027;-36
2024/01/01 07:51:21;;;;;;;6.60;1.98;;;;;;;5.87;100.00;100146.19;5096867;28;20052;-36
2024/01/01 07:53:48;;;;;;;7.18;2.45;;;;;;;5.88;100.00;100158.56;5096305;28;20024;-36
2024/01/01 07:56:13;;;;;;;7.18;1.88;;;;;;;5.88;100.00;100145.97;5096931;28;20048;-36
2024/01/01 07:58:39;;;;;;;9.50;2.33;;;;;;;5.89;100.00;100157.50;5096425;28;20024;-36
2024/01/01 08:01:04;;;;;;;8.60;2.00;;;;;;;5.89;100.00;100162.88;5096732;28;20035;-36
2024/01/01 08:03:29;;;;;;;9.47;2.70;;;;;;;5.84;100.00;100160.84;5096250;28;20114;-36
2024/01/01 08:05:55;;;;;;;10.33;2.20;;;;;;;5.90;100.00;100169.88;5096525;28;20035;-36
2024/01/01 08:08:20;;;;;;;9.47;2.27;;;;;;;5.94;100.00;100176.50;5096497;28;20038;-36
2024/01/01 08:10:45;;;;;;;7.90;2.13;;;;;;;5.86;100.00;100161.47;5096276;28;20107;-36
2024/01/01 08:13:11;;;;;;;10.23;2.30;;;;;;;5.79;100.00;100159.84;5096196;28;20031;-37
2024/01/01 08:15:36;;;;;;;8.65;2.22;;;;;;;5.94;100.00;100198.78;5096039;28;20020;-36
2024/01/01 08:18:03;;;;;;;7.82;1.95;;;;;;;5.97;100.00;100202.91;5096133;28;20039;-36
2024/01/01 08:20:29;;;;;;;11.05;2.35;;;;;;;5.93;100.00;100197.16;5096294;28;20051;-36
2024/01/01 08:22:55;;;;;;;12.02;3.88;;;;;;;5.93;100.00;100194.47;5095975;28;20032;-37
2024/01/01 08:25:20;;;;;;;6.07;1.85;;;;;;;6.00;100.00;100207.00;5096646;28;20118;-36
2024/01/01 08:27:45;;;;;;;8.97;2.67;;;;;;;6.02;100.00;100221.06;5095684;28;20024;-36
2024/01/01 08:30:11;;;;;;;9.37;2.57;;;;;;;6.04;100.00;100213.59;5095827;28;20450;-36
2024/01/01 08:32:37;;;;;;;8.13;2.28;;;;;;;6.07;100.00;100218.53;5096146;28;20063;-36
2024/01/01 08:35:03;;;;;;;6.28;1.98;;;;;;;6.07;100.00;100226.59;5095510;28;20039;-36
2024/01/01 08:37:28;;;;;;;9.35;2.63;;;;;;;6.11;100.00;100222.44;5096266;28;20028;-36
2024/01/01 08:39:53;;;;;;;9.30;2.37;;;;;;;6.12;100.00;100221.41;5095985;28;20032;-36
2024/01/01 08:42:19;;;;;;;5.83;2.27;;;;;;;6.18;100.00;100225.88;5096722;28;20020;-36
2024/01/01 08:44:44;;;;;;;11.53;2.40;;;;;;;6.23;100.00;100222.56;5096111;28;20064;-36
2024/01/01 08:47:09;;;;;;;8.30;2.20;;;;;;;6.16;100.00;100227.97;5096642;28;20035;-36
2024/01/01 08:49:35;;;;;;;8.27;1.77;;;;;;;6.17;100.00;100224.25;5095779;28;20020;-36
2024/01/01 08:52:00;;;;;;;8.73;2.27;;;;;;;6.19;100.00;100219.47;5096080;28;20111;-36
2024/01/01 08:54:26;;;;;;;5.50;1.77;;;;;;;6.27;100.00;100234.50;5095709;28;20031;-36
2024/01/01 08:56:51;;;;;;;4.03;1.80;;;;;;;6.28;100.00;100239.66;5095899;28;20044;-36
2024/01/01 08:59:17;;;;;;;8.32;2.10;;;;;;;6.31;100.00;100238.41;5095255;28;20103;-36
2024/01/01 09:01:45;;;;;;;9.23;2.33;;;;;;;6.33;100.00;100239.81;5095881;28;20129;-36
2024/01/01 09:04:12;;;;;;;7.45;2.30;;;;;;;6.38;100.00;100237.31;5095550;28;20028;-36
2024/01/01 09:06:38;;;;;;;8.73;1.70;;;;;;;6.44;100.00;100241.81;5095193;28;20031;-36
2024/01/01 09:09:03;;;;;;;6.72;1.95;;;;;;;6.51;100.00;100246.31;5095484;28;20043;-36
2024/01/01 09:11:29;;;;;;;8.30;2.03;;;;;;;6.54;100.00;100251.22;5095584;28;20384;-36
2024/01/01 09:13:54;;;;;;;10.87;2.70;;;;;;;6.56;100.00;100262.59;5095346;28;20383;-36
2024/01/01 09:16:20;;;;;;;8.70;2.17;;;;;;;6.55;100.00;100263.66;5095307;28;20055;-36
2024/01/01 09:18:45;;;;;;;6.70;1.98;;;;;;;6.51;100.00;100259.75;5095504;28;20067;-36
2024/01/01 09:21:15;;;;;;;6.80;2.00;;;;;;;6.50;100.00;100267.00;5095739;28;20048;-36
2024/01/01 09:23:41;;;;;;;9.25;2.17;;;;;;;6.51;100.00;100267.81;5095131;28;20086;-36
2024/01/01 09:26:06;;;;;;;5.88;2.17;;;;;;;6.52;100.00;100274.81;5095341;28;20469;-36
2024/01/01 09:28:33;;;;;;;6.63;2.00;;;;;;;6.55;100.00;100283.28;5094996;28;20082;-36
2024/01/01 09:30:58;;;;;;;;;;;;;;;6.60;100.00;100279.94;5096270;28;20028;-37
2024/01/01 09:33:23;;;;;;;6.10;2.00;;;;;;;6.59;100.00;100289.03;5094847;28;19973;-36
2024/01/01 09:35:49;;;;;;;7.67;2.07;;;;;;;6.50;100.00;100272.34;5095157;28;20111;-36
2024/01/01 09:38:14;;;;;;;7.37;1.80;;;;;;;6.54;100.00;100296.91;5095376;28;20028;-36
2024/01/01 09:40:40;;;;;;;7.10;2.10;;;;;;;6.54;100.00;100296.91;5094261;28;20016;-36
2024/01/01 09:43:05;;;;;;;4.07;1.48;;;;;;;6.48;100.00;100303.16;5095534;28;20028;-36
2024/01/01 09:45:32;;;;;;;3.33;1.10;;;;;;;6.47;100.00;100306.88;5094725;28;20384;-36
2024/01/01 09:47:57;;;;;;;4.72;1.55;;;;;;;6.45;100.00;100313.31;5095202;28;20072;-36
2024/01/01 09:50:22;;;;;;;2.45;1.20;;;;;;;6.47;100.00;100309.56;5094811;28;20103;-36
2024/01/01 09:52:57;;;;;;;5.67;1.70;;;;;;;6.53;100.00;100314.06;5095085;28;20039;-36
2024/01/01 09:55:22;;;;;;;7.63;2.22;;;;;;;6.63;100.00;100319.78;5094601;28;20035;-36
2024/01/01 09:57:48;;;;;;;6.57;2.10;;;;;;;6.77;100.00;100315.13;5094814;28;20023;-36
2024/01/01 10:00:23;;;;;;;8.03;1.97;;;;;;;6.82;100.00;100329.56;5094974;28;20034;-36
2024/01/01 10:02:49;;;;;;;9.15;2.97;;;;;;;6.80;100.00;100320.09;5094906;28;20096;-36
2024/01/01 10:05:15;;;;;;;6.45;2.00;;;;;;;6.86;100.00;100329.94;5094077;28;20102;-36
2024/01/01 10:07:41;;;;;;;8.15;2.20;;;;;;;6.86;100.00;100330.78;5094354;28;20039;-36
2024/01/01 10:10:07;;;;;;;7.32;2.25;;;;;;;6.87;100.00;100332.41;5094213;28;20036;-36
2024/01/01 10:12:33;;;;;;;;;;;;;;;6.94;100.00;100341.25;5094347;28;20024;-36
2024/01/01 10:14:58;;;;;;;9.02;2.28;;;;;;;6.93;100.00;100342.31;5094036;28;20003;-36
2024/01/01 10:17:24;;;;;;;7.90;2.30;;;;;;;6.97;100.00;100343.50;5094141;28;20036;-36
2024/01/01 10:19:53;;;;;;;9.07;2.80;;;;;;;7.05;100.00;100358.53;5094148;28;20081;-36
2024/01/01 10:22:19;;;;;;;6.63;2.42;;;;;;;7.08;100.00;100341.16;5094367;28;20452;-36
2024/01/01 10:24:55;;;;;;;9.60;2.40;;;;;;;7.19;100.00;100353.88;5093958;28;20119;-36
2024/01/01 10:27:22;;;;;;;6.50;2.47;;;;;;;7.21;100.00;100359.84;5094219;28;20050;-36
2024/01/01 10:29:48;;;;;;;5.90;2.20;;;;;;;7.20;100.00;100366.25;5094442;28;20111;-36
2024/01/01 10:32:17;;;;;;;7.95;2.13;;;;;;;7.17;100.00;100370.22;5094777;28;20110;-37
2024/01/01 10:34:46;;;;;;;7.80;1.95;;;;;;;7.05;100.00;100377.34;5093509;28;20019;-36
2024/01/01 10:37:14;;;;;;;7.57;2.03;;;;;;;6.94;100.00;100365.44;5094044;28;20407;-37
2024/01/01 10:39:41;;;;;;;9.35;2.15;;;;;;;6.97;100.00;100378.44;5093443;28;20024;-36
2024/01/01 10:42:07;;;;;;;7.07;2.35;;;;;;;6.90;100.00;100374.97;5094062;28;20024;-37
2024/01/01 10:44:32;;;;;;;7.93;2.00;;;;;;;6.83;100.00;100368.84;5093707;28;20081;-37
2024/01/01 10:47:03;;;;;;;10.82;3.33;;;;;;;6.82;100.00;100363.66;5093418;28;20036;-36
2024/01/01 10:49:31;;;;;;;6.22;2.22;;;;;;;6.77;100.00;100353.56;5093981;28;20469;-41
2024/01/01 10:52:35;;;;;;;10.13;3.47;;;;;;;6.88;100.00;100377.09;5094017;28;20099;-36
2024/01/01 10:55:27;;;;;;;7.05;2.95;;;;;;;7.02;100.00;100374.28;5093556;28;20047;-36
2024/01/01 10:58:06;;;;;;;9.18;3.45;;;;;;;7.08;100.00;100376.09;5093935;28;20058;-37
2024/01/01 11:00:41;;;;;;;7.93;2.42;;;;;;;7.15;100.00;100383.06;5093887;28;20082;-36
2024/01/01 11:03:12;;;;;;;11.30;2.70;;;;;;;7.20;100.00;100379.72;5093829;28;20020;-36
2024/01/01 11:05:37;;;;;;;10.10;2.33;;;;;;;7.24;100.00;100378.22;5094391;28;20429;-36
2024/01/01 11:08:03;;;;;;;11.23;3.00;;;;;;;7.23;100.00;100374.72;5093250;28;20103;-36
2024/01/01 11:10:42;;;;;;;9.43;2.50;;;;;;;7.20;100.00;100375.16;5093435;28;20277;-36
2024/01/01 11:13:31;;;;;;;10.80;2.50;;;;;;;7.26;100.00;100381.50;5093464;28;20028;-36
2024/01/01 11:16:01;;;;;;;7.60;2.17;;;;;;;7.24;100.00;100380.94;5055497;28;20032;-36
2024/01/01 11:18:34;;;;;;;11.20;2.88;;;;;;;7.18;100.00;100376.44;5093430;28;20020;-36
2024/01/01 11:21:01;;;;;;;9.80;2.17;;;;;;;7.18;100.00;100376.44;5093103;28;20066;-36
2024/01/01 11:23:43;;;;;;;9.00;2.42;;;;;;;7.27;100.00;100391.25;5093591;28;20035;-36